Time;durP1;ratioP1;P1;durP2;ratioP2;P2;SDS_P1;SDS_P2;PMS_P1;PMS_P2;Temp;Humidity;BMP_temperature;BMP_pressure;BME280_temperature;BME280_humidity;BME280_pressure;Samples;Min_cycle;Max_cycle;Signal;HPM_P1;HPM_P2
2020/12/28 11:04:49;;;;;;;16.35;9.07;;;1.10;99.90;;;;;;5050808;27;20446;-71
2020/12/28 11:07:14;;;;;;;17.70;9.57;;;1.10;99.90;;;;;;5044745;28;20500;-70
2020/12/28 11:09:40;;;;;;;16.30;10.02;;;1.10;99.90;;;;;;5047003;28;20078;-70
2020/12/28 11:12:06;;;;;;;36.17;20.35;;;1.20;99.90;;;;;;5049045;28;20092;-71
2020/12/28 11:14:31;;;;;;;27.90;16.20;;;1.30;99.90;;;;;;5056658;28;20097;-70
2020/12/28 11:17:01;;;;;;;27.17;11.02;;;1.40;99.90;;;;;;5057403;28;20131;-69
2020/12/28 11:19:26;;;;;;;16.75;9.85;;;1.60;99.90;;;;;;5062520;28;20199;-70
2020/12/28 11:21:52;;;;;;;17.23;10.80;;;1.70;99.90;;;;;;5053974;28;20770;-71
2020/12/28 11:24:17;;;;;;;17.10;9.35;;;1.80;99.90;;;;;;5044860;28;20108;-72
2020/12/28 11:26:43;;;;;;;16.75;9.35;;;1.80;99.90;;;;;;5044276;28;20080;-71
2020/12/28 11:29:08;;;;;;;14.40;9.57;;;1.80;99.90;;;;;;5043550;28;20074;-70
2020/12/28 11:31:34;;;;;;;15.25;8.93;;;1.90;99.90;;;;;;5044531;28;20080;-71
2020/12/28 11:34:00;;;;;;;15.05;7.70;;;1.90;99.90;;;;;;5054229;28;20172;-68
2020/12/28 11:36:26;;;;;;;18.73;10.20;;;1.90;99.90;;;;;;5048545;28;20488;-70
2020/12/28 11:38:51;;;;;;;16.67;8.80;;;1.70;99.90;;;;;;5050291;28;20086;-70
2020/12/28 11:41:18;;;;;;;15.75;8.63;;;1.80;99.90;;;;;;5056272;28;20065;-69
2020/12/28 11:43:44;;;;;;;16.80;7.80;;;1.90;99.90;;;;;;5029027;28;20097;-69
2020/12/28 11:46:10;;;;;;;10.15;6.00;;;2.00;99.90;;;;;;5051783;28;20662;-68
2020/12/28 11:48:37;;;;;;;9.32;6.18;;;2.00;99.90;;;;;;5042882;28;20092;-68
2020/12/28 11:51:05;;;;;;;13.93;6.78;;;2.00;99.90;;;;;;5042442;28;20112;-74
2020/12/28 11:53:39;;;;;;;12.27;6.70;;;2.00;99.90;;;;;;5041641;28;20093;-71
2020/12/28 11:56:11;;;;;;;10.75;5.75;;;2.00;99.90;;;;;;5043260;28;20127;-70
2020/12/28 11:58:39;;;;;;;12.20;6.10;;;2.00;99.90;;;;;;5045266;28;20082;-68
2020/12/28 12:01:09;;;;;;;12.05;7.20;;;2.00;99.90;;;;;;5047241;28;20069;-71
2020/12/28 12:03:35;;;;;;;12.15;7.05;;;2.10;99.90;;;;;;5056361;28;20191;-72
2020/12/28 12:06:00;;;;;;;15.43;8.32;;;2.10;99.90;;;;;;5050334;28;20146;-70
2020/12/28 12:08:26;;;;;;;13.55;8.38;;;2.20;99.90;;;;;;5044253;28;20074;-71
2020/12/28 12:10:52;;;;;;;10.57;7.60;;;2.20;99.90;;;;;;5045841;28;20077;-70
2020/12/28 12:13:19;;;;;;;11.52;7.43;;;2.00;99.90;;;;;;5042104;28;20094;-71
2020/12/28 12:15:45;;;;;;;10.00;6.22;;;2.00;99.90;;;;;;5038189;28;20076;-71
2020/12/28 12:18:11;;;;;;;11.32;7.18;;;2.20;99.90;;;;;;5047739;28;20085;-69
2020/12/28 12:20:37;;;;;;;15.02;9.20;;;2.10;99.90;;;;;;5035723;28;20109;-70
2020/12/28 12:23:03;;;;;;;39.35;19.33;;;2.10;99.90;;;;;;5034797;28;20453;-71
2020/12/28 12:25:29;;;;;;;25.23;15.23;;;2.20;99.90;;;;;;5030424;28;20145;-70
2020/12/28 12:27:54;;;;;;;20.90;12.43;;;2.00;99.90;;;;;;5032927;28;20160;-70
2020/12/28 12:30:20;;;;;;;21.73;11.55;;;2.10;99.90;;;;;;5033178;28;20082;-70
2020/12/28 12:32:45;;;;;;;18.45;8.98;;;2.10;99.90;;;;;;5028675;28;20556;-70
2020/12/28 12:35:11;;;;;;;17.63;10.43;;;2.00;99.90;;;;;;5033119;28;20089;-70
2020/12/28 12:37:37;;;;;;;16.95;9.48;;;1.70;99.90;;;;;;5027487;28;20161;-71
2020/12/28 12:40:02;;;;;;;15.13;8.20;;;1.80;99.90;;;;;;5029743;28;20078;-71
2020/12/28 12:42:28;;;;;;;13.82;8.13;;;2.00;99.90;;;;;;5035536;28;20654;-71
2020/12/28 12:44:53;;;;;;;14.35;7.40;;;2.10;99.90;;;;;;5027937;28;20834;-70
2020/12/28 12:47:19;;;;;;;12.55;8.48;;;2.10;99.90;;;;;;5029377;28;20100;-72
2020/12/28 12:49:45;;;;;;;15.88;7.97;;;2.20;99.90;;;;;;5035762;28;20488;-71
2020/12/28 12:52:14;;;;;;;22.83;12.85;;;2.20;99.90;;;;;;5027504;28;20078;-71
2020/12/28 12:54:41;;;;;;;20.55;11.55;;;2.30;99.90;;;;;;5026765;28;20101;-70
2020/12/28 12:57:07;;;;;;;16.30;10.93;;;2.30;99.90;;;;;;5039097;28;20207;-69
2020/12/28 13:00:01;;;;;;;18.20;11.05;;;2.30;99.90;;;;;;5037919;28;20553;-69
2020/12/28 13:02:18;;;;;;;14.68;9.98;;;2.30;99.90;;;;;;5030013;28;20499;-70
2020/12/28 13:04:44;;;;;;;15.07;7.50;;;2.30;99.90;;;;;;5031625;28;20132;-74
2020/12/28 13:07:09;;;;;;;13.80;7.03;;;2.30;99.90;;;;;;5046475;28;20074;-74
2020/12/28 13:09:35;;;;;;;17.55;9.50;;;2.30;99.90;;;;;;5035417;28;20113;-70
2020/12/28 13:12:00;;;;;;;14.38;9.00;;;2.30;99.90;;;;;;5033459;28;20105;-72
2020/12/28 13:14:26;;;;;;;16.20;9.57;;;2.20;99.90;;;;;;5027897;28;20144;-74
2020/12/28 13:16:52;;;;;;;14.05;9.00;;;2.20;99.90;;;;;;5036195;28;20089;-73
2020/12/28 13:19:17;;;;;;;16.20;7.90;;;2.30;99.90;;;;;;5035168;28;20747;-72
2020/12/28 13:21:47;;;;;;;15.60;9.70;;;2.30;99.90;;;;;;5029164;28;20558;-70
2020/12/28 13:24:13;;;;;;;14.07;8.35;;;2.30;99.90;;;;;;5028497;28;20173;-69
2020/12/28 13:26:40;;;;;;;18.42;10.82;;;2.30;99.90;;;;;;5029393;28;20165;-73
2020/12/28 13:29:06;;;;;;;14.23;7.93;;;2.30;99.90;;;;;;5040281;28;20530;-73
2020/12/28 13:31:31;;;;;;;17.73;8.85;;;2.20;99.90;;;;;;5043357;28;20086;-71
2020/12/28 13:33:57;;;;;;;54.60;20.35;;;2.10;99.90;;;;;;5041910;28;20502;-70
2020/12/28 13:36:34;;;;;;;27.48;11.27;;;2.20;99.90;;;;;;5042551;28;20073;-68
2020/12/28 13:39:00;;;;;;;9.80;6.40;;;2.20;99.90;;;;;;5033816;28;20078;-72
2020/12/28 13:41:26;;;;;;;11.00;7.22;;;2.30;99.90;;;;;;5035108;28;20077;-69
2020/12/28 13:43:52;;;;;;;13.07;6.30;;;2.10;99.90;;;;;;5027196;28;20151;-70
2020/12/28 13:46:17;;;;;;;10.82;7.63;;;2.10;99.90;;;;;;5025614;28;20643;-69
2020/12/28 13:48:44;;;;;;;10.00;6.38;;;2.20;99.90;;;;;;5032096;28;20080;-70
2020/12/28 13:51:09;;;;;;;10.35;6.28;;;2.20;99.90;;;;;;5040427;28;20157;-69
2020/12/28 13:53:35;;;;;;;23.70;11.30;;;2.20;99.90;;;;;;5044297;28;20678;-69
2020/12/28 13:56:00;;;;;;;16.85;8.95;;;2.20;99.90;;;;;;5040002;28;20156;-74
2020/12/28 13:58:26;;;;;;;17.48;10.32;;;2.20;99.90;;;;;;5041450;28;20091;-74
2020/12/28 14:00:52;;;;;;;13.60;7.63;;;2.10;99.90;;;;;;5045626;28;20086;-69
2020/12/28 14:03:17;;;;;;;15.50;9.13;;;2.00;99.90;;;;;;5038555;28;20093;-69
2020/12/28 14:05:43;;;;;;;11.73;7.90;;;2.00;99.90;;;;;;5026119;28;20717;-69
2020/12/28 14:08:10;;;;;;;11.10;5.93;;;1.90;99.90;;;;;;5030125;28;20534;-69
2020/12/28 14:10:35;;;;;;;8.52;6.05;;;2.00;99.90;;;;;;5028109;28;20157;-69
2020/12/28 14:13:01;;;;;;;8.95;6.43;;;1.90;99.90;;;;;;5032333;28;20152;-69
2020/12/28 14:15:27;;;;;;;11.00;6.75;;;1.80;99.90;;;;;;5026154;28;20112;-68
2020/12/28 14:17:52;;;;;;;9.43;6.38;;;1.70;99.90;;;;;;5029472;28;20099;-69
2020/12/28 14:20:18;;;;;;;8.40;5.75;;;1.80;99.90;;;;;;5030837;28;20097;-71
2020/12/28 14:22:43;;;;;;;9.98;6.20;;;1.90;99.90;;;;;;5034089;28;20113;-69
2020/12/28 14:25:09;;;;;;;7.72;5.43;;;1.90;99.90;;;;;;5043086;28;20140;-69
2020/12/28 14:27:34;;;;;;;6.80;4.95;;;1.90;99.90;;;;;;5036477;28;20085;-69
2020/12/28 14:30:00;;;;;;;9.27;6.82;;;2.00;99.90;;;;;;5044539;28;20180;-69
2020/12/28 14:32:25;;;;;;;11.60;7.55;;;2.00;99.90;;;;;;5042614;28;20434;-69
2020/12/28 14:34:51;;;;;;;38.70;19.77;;;2.10;99.90;;;;;;5040756;28;20184;-68
2020/12/28 14:37:16;;;;;;;19.27;12.10;;;2.10;99.90;;;;;;5033879;28;20078;-69
2020/12/28 14:39:42;;;;;;;11.30;8.18;;;2.10;99.90;;;;;;5041398;28;20806;-70
2020/12/28 14:42:08;;;;;;;9.27;6.65;;;2.10;99.90;;;;;;5038890;28;20089;-68
2020/12/28 14:44:33;;;;;;;13.25;7.53;;;2.10;99.90;;;;;;5037269;28;20124;-69
2020/12/28 14:46:59;;;;;;;10.45;7.45;;;2.10;99.90;;;;;;5027122;28;20482;-69
2020/12/28 14:49:25;;;;;;;13.45;7.60;;;2.10;99.90;;;;;;5026513;28;20137;-69
2020/12/28 14:51:50;;;;;;;14.63;8.68;;;2.10;99.90;;;;;;5026150;28;20127;-68
2020/12/28 14:54:16;;;;;;;18.90;10.02;;;1.90;99.90;;;;;;5025766;28;20152;-71
2020/12/28 14:56:41;;;;;;;23.00;11.07;;;2.00;99.90;;;;;;5031905;28;20113;-70
2020/12/28 14:59:07;;;;;;;18.38;9.13;;;2.00;99.90;;;;;;5036413;28;20081;-71
2020/12/28 15:01:32;;;;;;;22.83;12.15;;;2.00;99.90;;;;;;5036301;28;20166;-69
2020/12/28 15:03:58;;;;;;;18.23;10.40;;;1.60;99.90;;;;;;5030466;28;20753;-71
2020/12/28 15:06:24;;;;;;;20.95;10.25;;;1.80;99.90;;;;;;5042300;28;20066;-69
2020/12/28 15:08:49;;;;;;;17.65;10.00;;;1.90;99.90;;;;;;5025983;28;20607;-70
2020/12/28 15:11:15;;;;;;;17.48;9.90;;;2.00;99.90;;;;;;5027193;28;20446;-70
2020/12/28 15:13:40;;;;;;;12.43;7.35;;;2.10;99.90;;;;;;5033651;28;20144;-72
2020/12/28 15:16:06;;;;;;;13.82;8.75;;;2.10;99.90;;;;;;5027662;28;20078;-68
2020/12/28 15:18:32;;;;;;;11.10;8.13;;;1.80;99.90;;;;;;5026246;28;20136;-68
2020/12/28 15:20:58;;;;;;;10.65;8.23;;;1.80;99.90;;;;;;5027006;28;20106;-69
2020/12/28 15:23:25;;;;;;;16.75;10.55;;;1.90;99.90;;;;;;5023962;28;20137;-69
2020/12/28 15:25:50;;;;;;;12.60;8.63;;;2.00;99.90;;;;;;5026880;28;20085;-68
2020/12/28 15:28:16;;;;;;;13.82;8.93;;;2.00;99.90;;;;;;5024806;28;20082;-69
2020/12/28 15:30:42;;;;;;;17.10;8.32;;;2.00;99.90;;;;;;5024640;28;20082;-70
2020/12/28 15:33:07;;;;;;;15.88;8.63;;;2.00;99.90;;;;;;5025712;28;20097;-69
2020/12/28 15:35:33;;;;;;;17.05;9.55;;;1.90;99.90;;;;;;5028405;28;20089;-70
2020/12/28 15:37:58;;;;;;;18.42;9.05;;;2.00;99.90;;;;;;5027823;28;20094;-69
2020/12/28 15:40:24;;;;;;;16.42;8.30;;;2.00;99.90;;;;;;5026789;28;20090;-70
2020/12/28 15:42:49;;;;;;;16.33;8.20;;;2.20;99.90;;;;;;5034940;28;20093;-68
2020/12/28 15:45:15;;;;;;;14.57;9.25;;;2.20;99.90;;;;;;5034724;28;20070;-69
2020/12/28 15:47:41;;;;;;;13.57;9.57;;;2.20;99.90;;;;;;5038385;28;20454;-69
2020/12/28 15:50:06;;;;;;;15.43;10.75;;;2.30;99.90;;;;;;5038599;28;20144;-72
2020/12/28 15:52:32;;;;;;;18.00;10.32;;;2.30;99.90;;;;;;5044819;28;20097;-72
2020/12/28 15:54:57;;;;;;;13.60;8.90;;;2.20;99.90;;;;;;5039890;28;20607;-73
2020/12/28 15:57:23;;;;;;;14.57;9.20;;;2.30;99.90;;;;;;5032208;28;20084;-75
2020/12/28 15:59:48;;;;;;;22.08;11.48;;;2.30;99.90;;;;;;5034540;28;20074;-74
2020/12/28 16:02:15;;;;;;;26.50;13.30;;;2.20;99.90;;;;;;5032483;28;20081;-74
2020/12/28 16:04:41;;;;;;;20.05;11.07;;;2.20;99.90;;;;;;5039362;28;20128;-73
2020/12/28 16:07:06;;;;;;;13.18;8.45;;;2.30;99.90;;;;;;5031932;28;20109;-76
2020/12/28 16:09:33;;;;;;;13.70;7.47;;;1.90;99.90;;;;;;5031831;28;20131;-71
2020/12/28 16:11:59;;;;;;;11.38;8.38;;;2.00;99.90;;;;;;5035897;28;20082;-71
2020/12/28 16:14:24;;;;;;;11.98;6.53;;;1.80;99.90;;;;;;5036583;28;20577;-69
2020/12/28 16:16:50;;;;;;;13.27;7.93;;;1.90;99.90;;;;;;5043623;28;20084;-72
2020/12/28 16:19:15;;;;;;;16.55;8.60;;;2.00;99.90;;;;;;5029389;28;20123;-73
2020/12/28 16:21:41;;;;;;;12.85;8.18;;;1.90;99.90;;;;;;5032256;28;20088;-73
2020/12/28 16:24:07;;;;;;;14.57;10.05;;;2.00;99.90;;;;;;5040195;28;20132;-72
2020/12/28 16:26:33;;;;;;;21.20;13.27;;;2.00;99.90;;;;;;5042072;28;20093;-73
2020/12/28 16:28:58;;;;;;;30.67;17.60;;;2.00;99.90;;;;;;5031186;28;20196;-72
2020/12/28 16:31:26;;;;;;;21.17;13.55;;;1.80;99.90;;;;;;5034105;28;20126;-72
2020/12/28 16:33:52;;;;;;;23.10;13.70;;;1.90;99.90;;;;;;5035952;28;20585;-71
2020/12/28 16:36:18;;;;;;;27.38;14.32;;;1.90;99.90;;;;;;5033412;28;20069;-69
2020/12/28 16:38:44;;;;;;;22.48;13.60;;;2.00;99.90;;;;;;5031182;28;20419;-69
2020/12/28 16:41:11;;;;;;;21.38;12.52;;;2.00;99.90;;;;;;5032532;28;20077;-69
2020/12/28 16:43:37;;;;;;;24.45;13.55;;;2.10;99.90;;;;;;5032229;28;20422;-69
2020/12/28 16:46:03;;;;;;;21.52;12.63;;;2.10;99.90;;;;;;5028277;28;20089;-69
2020/12/28 16:48:29;;;;;;;16.80;11.32;;;2.20;99.90;;;;;;5038070;28;20069;-69
2020/12/28 16:50:55;;;;;;;13.55;10.07;;;2.20;99.90;;;;;;5042663;28;20074;-70
2020/12/28 16:53:23;;;;;;;14.13;8.18;;;2.20;99.90;;;;;;5028935;28;20108;-70
2020/12/28 16:55:49;;;;;;;16.83;9.75;;;2.10;99.90;;;;;;5028425;28;20077;-70
2020/12/28 16:58:15;;;;;;;20.13;9.77;;;2.00;99.90;;;;;;5034013;28;20093;-70
2020/12/28 17:00:40;;;;;;;13.70;9.45;;;2.10;99.90;;;;;;5031078;28;20131;-70
2020/12/28 17:03:06;;;;;;;11.00;8.45;;;2.00;99.90;;;;;;5029059;28;20101;-71
2020/12/28 17:05:32;;;;;;;13.18;9.73;;;2.10;99.90;;;;;;5034832;28;20453;-71
2020/12/28 17:07:57;;;;;;;27.80;16.60;;;2.00;99.90;;;;;;5028835;28;20086;-71
2020/12/28 17:10:23;;;;;;;12.68;8.57;;;2.10;99.90;;;;;;5029655;28;20129;-73
2020/12/28 17:12:49;;;;;;;14.15;11.00;;;1.80;99.90;;;;;;5035575;28;20157;-73
2020/12/28 17:15:15;;;;;;;10.63;8.25;;;1.80;99.90;;;;;;5029750;28;20101;-73
2020/12/28 17:17:41;;;;;;;14.32;9.50;;;1.80;99.90;;;;;;5038663;28;20124;-68
2020/12/28 17:20:06;;;;;;;11.55;8.18;;;2.00;99.90;;;;;;5024229;28;20074;-69
2020/12/28 17:22:33;;;;;;;11.27;8.05;;;2.00;99.90;;;;;;5029714;28;20085;-69
2020/12/28 17:24:58;;;;;;;62.70;24.23;;;2.00;99.90;;;;;;5029151;28;20473;-68
2020/12/28 17:27:24;;;;;;;71.38;28.45;;;1.90;99.90;;;;;;5029208;28;20078;-69
2020/12/28 17:29:50;;;;;;;63.42;27.40;;;1.80;99.90;;;;;;5028363;28;20078;-69
2020/12/28 17:32:17;;;;;;;39.53;20.13;;;1.70;99.90;;;;;;5027422;28;20074;-70
2020/12/28 17:34:44;;;;;;;21.23;13.82;;;1.90;99.90;;;;;;5026678;28;20147;-70
2020/12/28 17:37:10;;;;;;;19.17;13.48;;;1.90;99.90;;;;;;5031673;28;20074;-69
2020/12/28 17:39:35;;;;;;;19.13;13.80;;;1.70;99.90;;;;;;5031867;28;20088;-70
2020/12/28 17:42:10;;;;;;;30.40;19.33;;;1.70;99.90;;;;;;5036371;28;20085;-71
2020/12/28 17:44:37;;;;;;;28.90;16.48;;;1.80;99.90;;;;;;5035377;28;20105;-70
2020/12/28 17:47:03;;;;;;;17.73;11.98;;;1.90;99.90;;;;;;5041778;28;20115;-71
2020/12/28 17:49:29;;;;;;;16.52;12.05;;;1.90;99.90;;;;;;5033167;28;20098;-70
2020/12/28 17:51:55;;;;;;;18.02;12.57;;;1.80;99.90;;;;;;5036154;28;20116;-70
2020/12/28 17:54:20;;;;;;;20.85;12.60;;;1.80;99.90;;;;;;5044695;28;20112;-70
2020/12/28 17:56:47;;;;;;;19.83;11.18;;;1.70;99.90;;;;;;5043083;28;20085;-70
2020/12/28 17:59:12;;;;;;;16.42;11.00;;;1.70;99.90;;;;;;5038308;28;20693;-70
2020/12/28 18:01:38;;;;;;;15.80;10.38;;;1.70;99.90;;;;;;5040318;28;20238;-70
2020/12/28 18:04:03;;;;;;;9.07;7.97;;;1.70;99.90;;;;;;5034698;28;20470;-70
2020/12/28 18:06:29;;;;;;;8.50;6.07;;;1.60;99.90;;;;;;5037419;28;20131;-69
2020/12/28 18:08:55;;;;;;;10.32;6.72;;;1.60;99.90;;;;;;5040560;28;20109;-69
2020/12/28 18:11:27;;;;;;;8.93;5.60;;;1.60;99.90;;;;;;5042576;28;20553;-69
2020/12/28 18:13:52;;;;;;;8.40;4.90;;;1.70;99.90;;;;;;5042186;28;20089;-70
2020/12/28 18:16:18;;;;;;;9.15;5.82;;;1.80;99.90;;;;;;5037820;28;20194;-70
2020/12/28 18:18:44;;;;;;;8.20;5.93;;;1.90;99.90;;;;;;5037801;28;20088;-69
2020/12/28 18:21:09;;;;;;;7.65;5.63;;;2.00;99.90;;;;;;5038260;28;20105;-69
2020/12/28 18:23:38;;;;;;;7.88;5.53;;;2.10;99.90;;;;;;5041256;28;20093;-70
2020/12/28 18:26:11;;;;;;;11.00;6.55;;;2.10;99.90;;;;;;5040633;28;20194;-70
2020/12/28 18:28:37;;;;;;;7.50;5.18;;;2.00;99.90;;;;;;5036530;28;20553;-70
2020/12/28 18:31:09;;;;;;;18.38;7.20;;;1.90;99.90;;;;;;5045091;28;20109;-70
2020/12/28 18:33:35;;;;;;;13.50;7.68;;;1.90;99.90;;;;;;5036297;28;20529;-70
2020/12/28 18:36:02;;;;;;;11.63;7.20;;;1.90;99.90;;;;;;5036195;28;20157;-70
2020/12/28 18:38:27;;;;;;;10.20;6.00;;;2.00;99.90;;;;;;5030551;28;20089;-70
2020/12/28 18:40:53;;;;;;;8.50;5.40;;;2.10;99.90;;;;;;5033759;28;20477;-69
2020/12/28 18:43:19;;;;;;;7.25;5.20;;;1.90;99.90;;;;;;5034006;28;20175;-70
2020/12/28 18:45:45;;;;;;;7.43;5.50;;;1.90;99.90;;;;;;5039126;28;20074;-69
2020/12/28 18:48:11;;;;;;;7.82;4.75;;;1.80;99.90;;;;;;5041454;28;20074;-69
2020/12/28 18:50:37;;;;;;;10.20;5.53;;;1.80;99.90;;;;;;5040328;28;20084;-69
2020/12/28 18:53:02;;;;;;;10.30;5.45;;;1.70;99.90;;;;;;5041008;28;20534;-70
2020/12/28 18:55:28;;;;;;;8.23;5.25;;;1.70;99.90;;;;;;5038760;28;20537;-70
2020/12/28 18:57:53;;;;;;;8.65;4.50;;;1.90;99.90;;;;;;5038887;28;20135;-70
2020/12/28 19:00:19;;;;;;;8.65;4.78;;;1.80;99.90;;;;;;5042491;28;20074;-69
2020/12/28 19:02:47;;;;;;;6.20;3.60;;;1.80;99.90;;;;;;5041292;28;20168;-70
2020/12/28 19:05:13;;;;;;;7.88;4.57;;;1.70;99.90;;;;;;5043638;28;20098;-70
2020/12/28 19:07:38;;;;;;;11.63;4.63;;;1.70;99.90;;;;;;5040415;28;20120;-70
2020/12/28 19:10:04;;;;;;;10.05;5.10;;;1.80;99.90;;;;;;5034777;28;20564;-70
2020/12/28 19:12:29;;;;;;;6.18;3.88;;;1.80;99.90;;;;;;5026643;28;20148;-70
2020/12/28 19:14:55;;;;;;;7.50;4.35;;;1.70;99.90;;;;;;5036073;28;20105;-70
2020/12/28 19:17:21;;;;;;;7.15;4.43;;;1.80;99.90;;;;;;5026398;28;20077;-70
2020/12/28 19:19:47;;;;;;;6.38;4.07;;;1.80;99.90;;;;;;5040102;28;20511;-69
2020/12/28 19:22:12;;;;;;;6.47;4.47;;;1.80;99.90;;;;;;5038059;28;20528;-70
2020/12/28 19:24:39;;;;;;;8.13;4.80;;;1.70;99.90;;;;;;5031906;28;20121;-70
2020/12/28 19:27:04;;;;;;;6.97;4.90;;;1.80;99.90;;;;;;5031179;28;20546;-70
2020/12/28 19:29:30;;;;;;;4.00;2.92;;;1.90;99.90;;;;;;5031090;28;20079;-72
2020/12/28 19:32:01;;;;;;;4.68;3.35;;;1.90;99.90;;;;;;5029965;28;20069;-71
2020/12/28 19:34:27;;;;;;;6.63;3.83;;;2.00;99.90;;;;;;5033682;28;20098;-71
2020/12/28 19:36:54;;;;;;;4.75;3.22;;;1.90;99.90;;;;;;5035394;28;20219;-70
2020/12/28 19:39:20;;;;;;;4.63;3.90;;;2.10;99.90;;;;;;5031122;28;20073;-71
2020/12/28 19:41:50;;;;;;;6.40;3.55;;;2.00;99.90;;;;;;5030857;28;20078;-70
2020/12/28 19:44:18;;;;;;;5.68;3.53;;;2.00;99.90;;;;;;5032137;28;20177;-70
2020/12/28 19:46:44;;;;;;;4.53;3.80;;;2.00;99.90;;;;;;5030861;28;20074;-70
2020/12/28 19:49:10;;;;;;;3.75;2.67;;;2.10;99.90;;;;;;5033034;28;20116;-70
2020/12/28 19:51:37;;;;;;;3.60;2.25;;;2.20;99.90;;;;;;5040153;28;20134;-77
2020/12/28 19:54:03;;;;;;;3.08;2.47;;;2.40;99.90;;;;;;5033482;28;20252;-69
2020/12/28 19:56:29;;;;;;;7.20;3.60;;;2.40;99.90;;;;;;5028765;28;20082;-69
2020/12/28 19:59:11;;;;;;;4.88;2.70;;;2.50;99.90;;;;;;5035165;28;20619;-69
2020/12/28 20:01:39;;;;;;;3.45;2.65;;;2.40;99.90;;;;;;5045703;28;20107;-69
2020/12/28 20:04:04;;;;;;;4.65;2.47;;;2.30;99.90;;;;;;5038934;28;20224;-69
2020/12/28 20:06:30;;;;;;;3.60;2.38;;;2.40;99.90;;;;;;5030048;28;20548;-68
2020/12/28 20:08:55;;;;;;;4.60;3.17;;;2.40;99.90;;;;;;5028893;28;20127;-69
2020/12/28 20:11:21;;;;;;;2.95;2.38;;;2.10;99.90;;;;;;5029692;28;20077;-69
2020/12/28 20:13:48;;;;;;;2.78;2.00;;;2.00;99.90;;;;;;5029804;28;20192;-69
2020/12/28 20:16:15;;;;;;;2.75;1.60;;;1.80;99.90;;;;;;5035387;28;20147;-69
2020/12/28 20:18:40;;;;;;;2.95;1.70;;;1.70;99.90;;;;;;5042214;28;20077;-69
2020/12/28 20:21:06;;;;;;;2.17;1.42;;;1.70;99.90;;;;;;5041970;28;20139;-70
2020/12/28 20:23:32;;;;;;;2.35;1.65;;;1.70;99.90;;;;;;5028414;28;20534;-69
2020/12/28 20:25:57;;;;;;;2.75;2.05;;;1.70;99.90;;;;;;5035567;28;20097;-69
2020/12/28 20:28:23;;;;;;;1.98;1.75;;;1.60;99.90;;;;;;5029117;28;20070;-69
2020/12/28 20:30:49;;;;;;;3.85;1.60;;;1.70;99.90;;;;;;5029160;28;20074;-69
2020/12/28 20:33:14;;;;;;;2.70;2.05;;;1.90;99.90;;;;;;5031425;28;20093;-70
2020/12/28 20:35:40;;;;;;;2.08;1.67;;;2.10;99.90;;;;;;5037774;28;20093;-76
2020/12/28 20:38:05;;;;;;;3.00;1.95;;;1.90;99.90;;;;;;5036231;28;20132;-77
2020/12/28 20:40:38;;;;;;;3.33;2.65;;;2.10;99.90;;;;;;5033480;28;20086;-72
2020/12/28 20:43:15;;;;;;;2.83;1.85;;;2.10;99.90;;;;;;5037315;28;20101;-70
2020/12/28 20:45:41;;;;;;;5.53;2.08;;;2.10;99.90;;;;;;5039365;28;20065;-70
2020/12/28 20:48:10;;;;;;;1.52;1.30;;;2.10;99.90;;;;;;5041084;28;20580;-70
2020/12/28 20:50:37;;;;;;;1.50;1.10;;;1.90;99.90;;;;;;5038895;28;20128;-70
2020/12/28 20:53:04;;;;;;;3.78;1.23;;;1.80;99.90;;;;;;5038986;28;20077;-70
2020/12/28 20:55:31;;;;;;;1.63;1.30;;;1.90;99.90;;;;;;5038427;28;20483;-70
2020/12/28 20:57:56;;;;;;;1.95;1.20;;;2.00;99.90;;;;;;5044426;28;20074;-70
2020/12/28 21:00:22;;;;;;;1.20;1.05;;;1.60;99.90;;;;;;5029426;28;20147;-70
2020/12/28 21:02:47;;;;;;;1.23;1.10;;;1.50;99.90;;;;;;5028813;28;20086;-69
2020/12/28 21:05:13;;;;;;;1.88;1.30;;;1.40;99.90;;;;;;5030996;28;20119;-71
2020/12/28 21:07:39;;;;;;;2.17;1.67;;;1.00;99.90;;;;;;5028263;28;20173;-69
2020/12/28 21:10:05;;;;;;;2.08;1.63;;;0.80;99.90;;;;;;5037996;28;20080;-69
2020/12/28 21:12:30;;;;;;;2.05;1.15;;;0.80;99.90;;;;;;5027722;28;20070;-69
2020/12/28 21:14:56;;;;;;;1.73;1.00;;;0.70;99.90;;;;;;5031426;28;20097;-69
2020/12/28 21:17:21;;;;;;;1.77;1.20;;;0.40;99.90;;;;;;5028869;28;20103;-69
2020/12/28 21:19:47;;;;;;;1.42;1.02;;;0.30;99.90;;;;;;5025083;28;20082;-69
2020/12/28 21:22:13;;;;;;;1.75;1.23;;;0.40;99.90;;;;;;5031855;28;20147;-70
2020/12/28 21:24:41;;;;;;;2.17;1.00;;;0.40;99.90;;;;;;5030300;28;20098;-69
2020/12/28 21:27:07;;;;;;;2.13;0.95;;;0.40;99.90;;;;;;5027365;28;20081;-69
2020/12/28 21:29:32;;;;;;;2.63;1.58;;;0.30;99.90;;;;;;5029269;28;20086;-69
2020/12/28 21:31:58;;;;;;;2.13;1.58;;;0.30;99.90;;;;;;5027932;28;20154;-69
2020/12/28 21:34:23;;;;;;;1.20;1.10;;;0.20;99.90;;;;;;5028985;28;20101;-69
2020/12/28 21:36:53;;;;;;;1.25;0.90;;;0.20;99.90;;;;;;5028756;28;20150;-69
2020/12/28 21:39:20;;;;;;;1.33;1.05;;;0.10;99.90;;;;;;5031004;28;20086;-69
2020/12/28 21:41:46;;;;;;;1.92;1.30;;;0.10;99.90;;;;;;5028137;28;20074;-69
2020/12/28 21:44:12;;;;;;;6.25;2.95;;;0.40;99.90;;;;;;5026876;28;20135;-70
2020/12/28 21:46:37;;;;;;;4.85;3.13;;;0.60;99.90;;;;;;5027374;28;20164;-69
2020/12/28 21:49:03;;;;;;;6.03;3.65;;;0.80;99.90;;;;;;5025913;28;20169;-69
2020/12/28 21:51:28;;;;;;;7.68;4.53;;;0.60;99.90;;;;;;5030094;28;20448;-69
2020/12/28 21:53:54;;;;;;;8.52;4.40;;;0.40;99.90;;;;;;5035525;28;20830;-68
2020/12/28 21:56:20;;;;;;;5.53;3.35;;;0.30;99.90;;;;;;5044829;28;20101;-69
2020/12/28 21:58:46;;;;;;;7.15;4.80;;;0.70;99.90;;;;;;5033090;28;20081;-73
2020/12/28 22:01:14;;;;;;;6.78;4.97;;;0.90;99.90;;;;;;5039231;28;20196;-73
2020/12/28 22:03:39;;;;;;;3.40;2.20;;;0.90;99.90;;;;;;5037973;28;20589;-73
2020/12/28 22:06:05;;;;;;;2.53;1.27;;;0.60;99.90;;;;;;5037909;28;20096;-73
2020/12/28 22:08:31;;;;;;;3.22;1.98;;;0.70;99.90;;;;;;5030423;28;20757;-73
2020/12/28 22:10:57;;;;;;;1.90;1.33;;;0.60;99.90;;;;;;5041914;28;20503;-73
2020/12/28 22:13:25;;;;;;;10.85;6.53;;;0.60;99.90;;;;;;5032090;28;20101;-72
2020/12/28 22:15:51;;;;;;;12.13;7.65;;;0.50;99.90;;;;;;5029389;28;20748;-73
2020/12/28 22:18:16;;;;;;;11.55;6.38;;;0.40;99.90;;;;;;5029325;28;20116;-69
2020/12/28 22:20:42;;;;;;;7.13;5.07;;;0.70;99.90;;;;;;5031453;28;20522;-69
2020/12/28 22:23:07;;;;;;;3.53;2.72;;;0.70;99.90;;;;;;5027452;28;20105;-69
2020/12/28 22:25:33;;;;;;;3.25;2.53;;;0.40;99.90;;;;;;5026926;28;20614;-69
2020/12/28 22:27:59;;;;;;;6.60;2.05;;;0.30;99.90;;;;;;5027372;28;20074;-70
2020/12/28 22:30:24;;;;;;;2.90;2.60;;;0.40;99.90;;;;;;5029875;28;20124;-69
2020/12/28 22:32:50;;;;;;;3.63;2.38;;;0.40;99.90;;;;;;5029130;28;20130;-68
2020/12/28 22:35:15;;;;;;;3.72;2.90;;;0.40;99.90;;;;;;5029869;28;20117;-69
2020/12/28 22:37:41;;;;;;;3.80;2.72;;;0.40;99.90;;;;;;5030878;28;20122;-69
2020/12/28 22:40:08;;;;;;;4.70;2.88;;;0.50;99.90;;;;;;5026077;28;20082;-69
2020/12/28 22:42:34;;;;;;;4.28;3.03;;;0.60;99.90;;;;;;5033354;28;20570;-69
2020/12/28 22:45:00;;;;;;;5.43;3.13;;;0.70;99.90;;;;;;5042020;28;20101;-69
2020/12/28 22:47:26;;;;;;;3.78;2.70;;;0.50;99.90;;;;;;5037796;28;20135;-69
2020/12/28 22:49:51;;;;;;;3.15;2.03;;;0.70;99.90;;;;;;5025756;28;20081;-69
2020/12/28 22:52:20;;;;;;;3.67;2.22;;;0.80;99.90;;;;;;5031184;28;20083;-69
2020/12/28 22:54:45;;;;;;;3.38;1.80;;;0.90;99.90;;;;;;5032901;28;20489;-69
2020/12/28 22:57:11;;;;;;;2.10;1.80;;;0.70;99.90;;;;;;5034118;28;20869;-69
2020/12/28 22:59:36;;;;;;;2.25;1.80;;;0.70;99.90;;;;;;5024915;28;20128;-69
2020/12/28 23:02:04;;;;;;;2.67;2.15;;;0.70;99.90;;;;;;5026921;28;20090;-69
2020/12/28 23:04:29;;;;;;;6.35;2.90;;;0.70;99.90;;;;;;5032871;28;20548;-69
2020/12/28 23:06:58;;;;;;;3.92;2.42;;;0.50;99.90;;;;;;5045081;28;20162;-69
2020/12/28 23:09:24;;;;;;;2.35;1.80;;;0.30;99.90;;;;;;5030163;28;20074;-69
2020/12/28 23:11:50;;;;;;;3.53;2.55;;;0.30;99.90;;;;;;5039423;28;20139;-69
2020/12/28 23:14:15;;;;;;;3.15;1.83;;;0.20;99.90;;;;;;5036571;28;20101;-69
2020/12/28 23:16:41;;;;;;;3.15;2.38;;;0.20;99.90;;;;;;5033994;28;20112;-69
2020/12/28 23:19:09;;;;;;;2.42;2.03;;;0.40;99.90;;;;;;5027598;28;20501;-69
2020/12/28 23:21:35;;;;;;;2.20;2.00;;;0.40;99.90;;;;;;5029001;28;20100;-69
2020/12/28 23:24:00;;;;;;;3.90;2.22;;;0.40;99.90;;;;;;5036497;28;20097;-69
2020/12/28 23:26:26;;;;;;;4.65;2.58;;;0.30;99.90;;;;;;5038460;28;20158;-69
2020/12/28 23:28:53;;;;;;;3.25;2.05;;;0.20;99.90;;;;;;5034037;28;20080;-69
2020/12/28 23:31:23;;;;;;;2.72;1.90;;;-0.10;99.90;;;;;;5037333;28;20069;-69
2020/12/28 23:33:49;;;;;;;2.30;1.83;;;0.10;99.90;;;;;;5036617;28;20097;-69
2020/12/28 23:36:17;;;;;;;2.38;2.08;;;0.20;99.90;;;;;;5036667;28;20147;-69
2020/12/28 23:38:42;;;;;;;2.22;1.63;;;0.40;99.90;;;;;;5040151;28;20081;-69
2020/12/28 23:41:19;;;;;;;1.55;1.42;;;0.50;99.90;;;;;;5038423;28;20096;-69
2020/12/28 23:43:46;;;;;;;2.50;1.60;;;0.50;99.90;;;;;;5037949;28;20109;-69
2020/12/28 23:46:28;;;;;;;1.42;1.33;;;0.50;99.90;;;;;;5042712;28;20511;-69
2020/12/28 23:48:54;;;;;;;2.22;1.60;;;0.50;99.90;;;;;;5038820;28;20081;-69